createdAt,value
2024-04-11T00:00:25.030Z,204.72
2024-04-11T00:01:25.331Z,221.38
2024-04-11T00:02:25.119Z,239.69
2024-04-11T00:03:25.046Z,257.59
2024-04-11T00:04:25.023Z,254.76
2024-04-11T00:05:24.924Z,241.66
2024-04-11T00:06:24.815Z,230.57
2024-04-11T00:07:24.755Z,221.23
2024-04-11T00:08:24.738Z,213.16
2024-04-11T00:09:24.693Z,209.83
2024-04-11T00:10:24.639Z,203.36
2024-04-11T00:11:24.667Z,198.35
2024-04-11T00:12:24.688Z,194.23
2024-04-11T00:13:24.631Z,191.91
2024-04-11T00:14:24.714Z,189.46
2024-04-11T00:15:24.644Z,188.64
2024-04-11T00:16:24.705Z,186.71
2024-04-11T00:17:24.757Z,185.72
2024-04-11T00:18:24.970Z,184.86
2024-04-11T00:19:24.703Z,183.55
2024-04-11T00:20:24.754Z,182.46
2024-04-11T00:21:24.684Z,181.73
2024-04-11T00:22:24.727Z,180.52
2024-04-11T00:23:24.821Z,180.11
2024-04-11T00:24:24.729Z,180.10
2024-04-11T00:25:24.702Z,179.88
2024-04-11T00:26:24.750Z,178.43
2024-04-11T00:27:24.671Z,177.87
2024-04-11T00:28:24.647Z,176.34
2024-04-11T00:29:24.703Z,174.91
2024-04-11T00:30:24.583Z,173.93
2024-04-11T00:31:24.511Z,172.71
2024-04-11T00:32:24.772Z,171.88
2024-04-11T00:33:24.693Z,170.40
2024-04-11T00:34:24.560Z,169.60
2024-04-11T00:35:24.390Z,169.21
2024-04-11T00:36:24.298Z,168.23
2024-04-11T00:37:24.247Z,168.19
2024-04-11T00:38:24.230Z,167.04
2024-04-11T00:39:24.173Z,166.81
2024-04-11T00:40:24.131Z,166.47
2024-04-11T00:41:24.142Z,166.51
2024-04-11T00:42:24.053Z,166.48
2024-04-11T00:43:24.011Z,165.76
2024-04-11T00:44:24.000Z,165.61
2024-04-11T00:46:26.813Z,50.00
2024-04-11T00:47:27.941Z,50.00
2024-04-11T00:48:27.937Z,50.00
2024-04-11T00:49:27.884Z,50.00
2024-04-11T00:50:27.877Z,50.00
2024-04-11T00:51:27.835Z,50.00
2024-04-11T00:52:27.838Z,50.00
2024-04-11T00:53:27.930Z,51.03
2024-04-11T00:54:27.868Z,51.16
2024-04-11T00:55:27.905Z,50.87
2024-04-11T00:56:27.895Z,50.00
2024-04-11T00:57:27.928Z,50.08
2024-04-11T00:58:27.879Z,52.82
2024-04-11T00:59:27.930Z,52.40
2024-04-11T01:00:27.892Z,52.48
2024-04-11T01:01:27.884Z,51.27
2024-04-11T01:02:27.967Z,51.85
2024-04-11T01:03:28.144Z,50.33
2024-04-11T01:04:27.908Z,51.80
2024-04-11T01:05:27.917Z,50.00
2024-04-11T01:06:27.861Z,52.66
2024-04-11T01:07:27.868Z,51.53
2024-04-11T01:08:27.906Z,51.78
2024-04-11T01:09:27.871Z,52.86
2024-04-11T01:10:27.869Z,56.00
2024-04-11T01:11:27.934Z,59.40
2024-04-11T01:12:27.889Z,61.08
2024-04-11T01:13:27.917Z,62.96
2024-04-11T01:14:27.945Z,63.54
2024-04-11T01:15:27.894Z,66.53
2024-04-11T01:16:27.916Z,68.36
2024-04-11T01:17:28.101Z,70.10
2024-04-11T01:18:27.976Z,71.54
2024-04-11T01:19:27.954Z,73.27
2024-04-11T01:20:27.940Z,74.17
2024-04-11T01:21:27.944Z,76.22
2024-04-11T01:22:27.915Z,77.92
2024-04-11T01:23:27.944Z,77.58
2024-04-11T01:24:27.950Z,78.95
2024-04-11T01:25:27.940Z,77.27
2024-04-11T01:26:27.966Z,75.64
2024-04-11T01:27:27.940Z,77.90
2024-04-11T01:28:27.947Z,79.75
2024-04-11T01:29:27.990Z,81.27
2024-04-11T01:30:27.961Z,84.59
2024-04-11T01:31:27.995Z,85.80
2024-04-11T01:32:28.149Z,87.92
2024-04-11T01:33:28.271Z,88.71
2024-04-11T01:34:28.309Z,90.88
2024-04-11T01:35:28.208Z,91.20
2024-04-11T01:36:28.234Z,93.26
2024-04-11T01:37:28.312Z,96.95
2024-04-11T01:38:28.443Z,100.47
2024-04-11T01:39:28.441Z,105.11
2024-04-11T01:40:28.515Z,108.63
2024-04-11T01:41:28.603Z,111.42
2024-04-11T01:42:28.653Z,115.05
2024-04-11T01:43:28.740Z,118.84
2024-04-11T01:44:28.850Z,122.81
2024-04-11T01:45:28.874Z,125.84
2024-04-11T01:46:29.066Z,124.08
2024-04-11T01:47:29.071Z,116.97
2024-04-11T01:48:29.160Z,106.28
2024-04-11T01:49:29.090Z,95.33
2024-04-11T01:50:29.146Z,91.63
2024-04-11T01:51:29.124Z,85.64
2024-04-11T01:52:29.168Z,76.21
2024-04-11T01:53:29.229Z,70.35
2024-04-11T01:54:29.231Z,64.81
2024-04-11T01:55:29.283Z,63.90
2024-04-11T01:56:29.340Z,62.29
2024-04-11T01:57:29.395Z,65.31
2024-04-11T01:58:29.400Z,70.18
2024-04-11T01:59:29.417Z,74.22
2024-04-11T02:00:29.414Z,78.26
2024-04-11T02:01:29.442Z,79.45
2024-04-11T02:02:29.503Z,79.14
2024-04-11T02:03:29.633Z,77.88
2024-04-11T02:04:29.601Z,73.18
2024-04-11T02:05:29.486Z,72.58
2024-04-11T02:06:29.501Z,71.56
2024-04-11T02:07:29.484Z,71.43
2024-04-11T02:08:29.538Z,71.58
2024-04-11T02:09:29.518Z,71.94
2024-04-11T02:10:29.520Z,67.79
2024-04-11T02:11:29.577Z,68.52
2024-04-11T02:12:29.657Z,64.07
2024-04-11T02:13:29.619Z,62.91
2024-04-11T02:14:29.676Z,60.85
2024-04-11T02:15:29.610Z,59.89
2024-04-11T02:16:29.655Z,58.46
2024-04-11T02:17:29.648Z,60.65
2024-04-11T02:18:29.696Z,59.21
2024-04-11T02:19:29.631Z,60.57
2024-04-11T02:20:29.699Z,59.87
2024-04-11T02:21:29.689Z,58.97
2024-04-11T02:22:29.679Z,57.74
2024-04-11T02:23:29.708Z,59.00
2024-04-11T02:24:29.691Z,60.68
2024-04-11T02:25:29.701Z,61.49
2024-04-11T02:26:29.755Z,63.70
2024-04-11T02:27:29.738Z,65.40
2024-04-11T02:28:29.761Z,65.72
2024-04-11T02:29:29.802Z,64.62
2024-04-11T02:30:29.815Z,65.39
2024-04-11T02:31:29.838Z,63.88
2024-04-11T02:32:29.916Z,62.94
2024-04-11T02:33:30.008Z,61.75
2024-04-11T02:34:30.055Z,62.86
2024-04-11T02:35:29.937Z,64.94
2024-04-11T02:36:29.906Z,66.64
2024-04-11T02:37:29.924Z,69.27
2024-04-11T02:38:29.962Z,73.00
2024-04-11T02:39:29.932Z,74.81
2024-04-11T02:40:29.988Z,80.08
2024-04-11T02:41:30.030Z,83.53
2024-04-11T02:42:30.036Z,85.38
2024-04-11T02:43:30.070Z,89.37
2024-04-11T02:44:30.169Z,92.41
2024-04-11T02:45:30.143Z,90.38
2024-04-11T02:46:30.199Z,88.50
2024-04-11T02:47:30.258Z,86.61
2024-04-11T02:48:30.397Z,82.78
2024-04-11T02:49:30.237Z,84.67
2024-04-11T02:50:30.288Z,83.38
2024-04-11T02:51:30.290Z,83.51
2024-04-11T02:52:30.321Z,87.13
2024-04-11T02:53:30.397Z,88.46
2024-04-11T02:54:30.371Z,87.29
2024-04-11T02:55:30.398Z,87.21
2024-04-11T02:56:30.434Z,82.88
2024-04-11T02:57:30.448Z,80.86
2024-04-11T02:58:30.495Z,77.15
2024-04-11T02:59:30.625Z,72.08
2024-04-11T03:00:30.690Z,71.31
2024-04-11T03:01:30.692Z,70.22
2024-04-11T03:02:31.021Z,68.77
2024-04-11T03:03:30.952Z,68.96
2024-04-11T03:04:31.013Z,68.52
2024-04-11T03:05:31.098Z,70.75
2024-04-11T03:06:31.037Z,73.11
2024-04-11T03:07:31.094Z,75.17
2024-04-11T03:08:31.163Z,76.70
2024-04-11T03:09:31.174Z,77.63
2024-04-11T03:10:31.218Z,78.82
2024-04-11T03:11:31.332Z,81.59
2024-04-11T03:12:31.300Z,84.44
2024-04-11T03:13:31.306Z,86.11
2024-04-11T03:14:31.376Z,89.83
2024-04-11T03:15:31.365Z,92.27
2024-04-11T03:16:31.701Z,95.08
2024-04-11T03:17:31.465Z,95.18
2024-04-11T03:18:33.593Z,91.38
2024-04-11T03:19:31.404Z,91.45
2024-04-11T03:20:31.413Z,91.49
2024-04-11T03:21:31.404Z,91.29
2024-04-11T03:22:31.417Z,90.05
2024-04-11T03:23:31.463Z,90.26
2024-04-11T03:24:31.420Z,89.19
2024-04-11T03:25:31.427Z,86.49
2024-04-11T03:26:31.494Z,89.70
2024-04-11T03:27:31.441Z,88.37
2024-04-11T03:28:31.456Z,88.45
2024-04-11T03:29:31.489Z,90.33
2024-04-11T03:30:31.491Z,92.84
2024-04-11T03:31:31.470Z,95.67
2024-04-11T03:32:31.659Z,99.97
2024-04-11T03:33:31.658Z,101.00
2024-04-11T03:34:31.529Z,105.38
2024-04-11T03:35:31.499Z,108.56
2024-04-11T03:36:31.481Z,112.55
2024-04-11T03:37:31.465Z,115.57
2024-04-11T03:38:31.507Z,118.65
2024-04-11T03:39:31.463Z,121.33
2024-04-11T03:40:31.462Z,122.80
2024-04-11T03:41:31.492Z,125.23
2024-04-11T03:42:31.478Z,125.13
2024-04-11T03:43:31.570Z,123.89
2024-04-11T03:44:31.492Z,123.55
2024-04-11T03:45:31.480Z,123.74
2024-04-11T03:46:31.467Z,127.63
2024-04-11T03:47:31.588Z,130.15
2024-04-11T03:48:31.589Z,132.27
2024-04-11T03:49:31.858Z,133.80
2024-04-11T03:50:31.524Z,132.89
2024-04-11T03:51:31.913Z,137.01
2024-04-11T03:52:31.495Z,137.09
2024-04-11T03:53:31.519Z,139.29
2024-04-11T03:54:31.520Z,139.04
2024-04-11T03:55:31.535Z,139.51
2024-04-11T03:56:31.670Z,140.89
2024-04-11T03:57:31.606Z,138.57
2024-04-11T03:58:31.601Z,137.70
2024-04-11T03:59:31.646Z,139.17
2024-04-11T04:00:31.623Z,137.03
2024-04-11T04:01:31.855Z,135.82
2024-04-11T04:02:31.773Z,131.08
2024-04-11T04:03:31.861Z,128.98
2024-04-11T04:04:31.795Z,127.48
2024-04-11T04:05:31.768Z,129.75
2024-04-11T04:06:31.730Z,127.87
2024-04-11T04:07:32.867Z,126.60
2024-04-11T04:08:31.813Z,130.63
2024-04-11T04:09:31.743Z,136.09
2024-04-11T04:10:31.743Z,133.52
2024-04-11T04:11:31.909Z,139.93
2024-04-11T04:12:31.888Z,138.88
2024-04-11T04:13:31.729Z,139.36
2024-04-11T04:14:33.306Z,140.42
2024-04-11T04:15:31.727Z,142.32
2024-04-11T04:16:31.882Z,143.41
2024-04-11T04:17:31.843Z,142.54
2024-04-11T04:18:31.840Z,141.18
2024-04-11T04:19:31.746Z,141.52
2024-04-11T04:20:31.782Z,139.98
2024-04-11T04:21:31.731Z,138.08
2024-04-11T04:22:31.757Z,140.16
2024-04-11T04:23:31.799Z,143.15
2024-04-11T04:24:31.741Z,145.92
2024-04-11T04:25:31.740Z,147.88
2024-04-11T04:26:31.868Z,143.14
2024-04-11T04:27:31.767Z,138.13
2024-04-11T04:28:31.805Z,130.14
2024-04-11T04:29:31.795Z,125.69
2024-04-11T04:30:31.774Z,122.89
2024-04-11T04:31:31.756Z,118.59
2024-04-11T04:32:31.904Z,115.39
2024-04-11T04:33:32.050Z,114.46
2024-04-11T04:34:31.896Z,105.99
2024-04-11T04:35:31.790Z,105.43
2024-04-11T04:36:31.768Z,101.51
2024-04-11T04:37:39.110Z,50.00
2024-04-11T04:38:40.178Z,50.00
2024-04-11T04:39:40.093Z,50.00
2024-04-11T04:40:40.183Z,50.00
2024-04-11T04:41:40.120Z,50.00
2024-04-11T04:42:40.112Z,50.89
2024-04-11T04:43:40.104Z,50.50
2024-04-11T04:44:40.147Z,52.39
2024-04-11T04:45:40.144Z,50.00
2024-04-11T04:46:40.120Z,52.02
2024-04-11T04:47:40.339Z,50.00
2024-04-11T04:48:40.380Z,51.62
2024-04-11T04:49:40.143Z,53.55
2024-04-11T04:50:42.028Z,53.09
2024-04-11T04:51:40.144Z,53.22
2024-04-11T04:52:40.141Z,54.47
2024-04-11T04:53:40.291Z,55.98
2024-04-11T04:54:40.147Z,62.24
2024-04-11T04:55:40.168Z,64.67
2024-04-11T04:56:40.187Z,66.87
2024-04-11T04:57:40.162Z,69.24
2024-04-11T04:58:40.173Z,71.81
2024-04-11T04:59:40.190Z,72.51
2024-04-11T05:00:40.271Z,76.53
2024-04-11T05:01:40.217Z,83.61
2024-04-11T05:02:40.325Z,89.68
2024-04-11T05:03:40.549Z,85.71
2024-04-11T05:04:40.263Z,84.12
2024-04-11T05:05:40.328Z,86.28
2024-04-11T05:06:40.261Z,84.17
2024-04-11T05:07:40.267Z,83.76
2024-04-11T05:08:40.282Z,82.22
2024-04-11T05:09:40.296Z,84.30
2024-04-11T05:10:40.330Z,90.44
2024-04-11T05:11:40.490Z,88.58
2024-04-11T05:12:40.398Z,89.13
2024-04-11T05:13:40.334Z,87.22
2024-04-11T05:14:40.488Z,80.31
2024-04-11T05:15:40.386Z,75.38
2024-04-11T05:16:40.403Z,72.23
2024-04-11T05:17:40.439Z,74.17
2024-04-11T05:18:40.437Z,72.07
2024-04-11T05:19:40.365Z,69.75
2024-04-11T05:20:40.395Z,69.40
2024-04-11T05:21:40.397Z,67.60
2024-04-11T05:22:40.389Z,65.90
2024-04-11T05:23:40.413Z,68.84
2024-04-11T05:24:40.419Z,67.68
2024-04-11T05:25:40.430Z,65.51
2024-04-11T05:26:40.469Z,64.42
2024-04-11T05:27:40.445Z,65.17
2024-04-11T05:28:41.525Z,66.83
2024-04-11T05:29:40.474Z,67.45
2024-04-11T05:30:40.450Z,67.21
2024-04-11T05:31:40.461Z,70.65
2024-04-11T05:32:40.551Z,67.94
2024-04-11T05:33:40.740Z,65.72
2024-04-11T05:34:40.616Z,63.40
2024-04-11T05:35:40.524Z,62.40
2024-04-11T05:36:40.470Z,60.55
2024-04-11T05:37:40.498Z,58.51
2024-04-11T05:38:40.504Z,62.05
2024-04-11T05:39:40.745Z,62.43
2024-04-11T05:40:40.564Z,64.16
2024-04-11T05:41:40.602Z,69.43
2024-04-11T05:42:40.602Z,68.88
2024-04-11T05:43:40.690Z,74.12
2024-04-11T05:44:40.767Z,74.79
2024-04-11T05:45:40.816Z,79.56
2024-04-11T05:46:40.925Z,83.45
2024-04-11T05:47:41.379Z,86.54
2024-04-11T05:48:41.020Z,88.76
2024-04-11T05:49:41.051Z,90.96
2024-04-11T05:50:41.131Z,98.42
2024-04-11T05:51:41.138Z,100.37
2024-04-11T05:52:41.167Z,103.89
2024-04-11T05:53:41.789Z,102.33
2024-04-11T05:54:41.272Z,103.69
2024-04-11T05:55:41.315Z,104.45
2024-04-11T05:56:41.423Z,102.11
2024-04-11T05:57:41.739Z,104.10
2024-04-11T05:58:41.462Z,103.26
2024-04-11T05:59:41.801Z,103.22
2024-04-11T06:00:42.078Z,108.57
2024-04-11T06:01:41.591Z,99.04
2024-04-11T06:02:41.680Z,86.09
2024-04-11T06:03:41.805Z,75.71
2024-04-11T06:04:41.745Z,66.54
2024-04-11T06:05:41.820Z,62.18
2024-04-11T06:06:44.945Z,55.48
2024-04-11T06:07:41.713Z,55.15
2024-04-11T06:08:41.704Z,53.97
2024-04-11T06:09:41.670Z,53.14
2024-04-11T06:10:41.670Z,51.62
2024-04-11T06:11:41.828Z,54.29
2024-04-11T06:12:41.830Z,55.08
2024-04-11T06:13:41.611Z,55.84
2024-04-11T06:14:41.767Z,58.79
2024-04-11T06:15:41.614Z,61.27
2024-04-11T06:16:41.653Z,66.22
2024-04-11T06:17:41.647Z,69.84
2024-04-11T06:18:42.706Z,69.25
2024-04-11T06:19:41.678Z,69.77
2024-04-11T06:20:41.829Z,69.29
2024-04-11T06:21:41.612Z,65.74
2024-04-11T06:22:41.628Z,61.13
2024-04-11T06:23:41.797Z,61.23
2024-04-11T06:24:41.746Z,57.74
2024-04-11T06:25:41.662Z,54.73
2024-04-11T06:26:41.748Z,55.30
2024-04-11T06:27:41.699Z,56.40
2024-04-11T06:28:42.020Z,53.55
2024-04-11T06:29:41.850Z,50.00
2024-04-11T06:31:41.810Z,50.29
2024-04-11T06:32:43.229Z,52.09
2024-04-11T06:33:42.522Z,50.69
2024-04-11T06:34:42.057Z,51.07
2024-04-11T06:35:41.793Z,55.34
2024-04-11T06:36:42.151Z,62.29
2024-04-11T06:37:41.768Z,73.97
2024-04-11T06:38:41.922Z,84.60
2024-04-11T06:39:41.826Z,80.41
2024-04-11T06:40:41.814Z,68.32
2024-04-11T06:41:41.767Z,58.75
2024-04-11T06:42:41.775Z,56.32
2024-04-11T06:43:41.799Z,52.39
2024-04-11T06:44:42.284Z,50.76
2024-04-11T06:45:41.776Z,52.68
2024-04-11T06:46:41.764Z,51.42
2024-04-11T06:47:48.052Z,50.00
2024-04-11T06:48:41.885Z,50.15
2024-04-11T06:49:44.536Z,49.38
2024-04-11T06:50:41.767Z,48.86
2024-04-11T06:51:41.685Z,45.62
2024-04-11T06:52:41.664Z,42.13
2024-04-11T06:53:41.774Z,38.03
2024-04-11T06:54:41.762Z,33.42
2024-04-11T06:55:41.614Z,53.99
2024-04-11T06:56:41.648Z,51.33
2024-04-11T06:57:41.562Z,49.23
2024-04-11T06:58:41.569Z,50.31
2024-04-11T06:59:41.830Z,50.00
2024-04-11T07:00:41.534Z,50.85
2024-04-11T07:01:43.807Z,50.08
2024-04-11T07:02:41.646Z,48.12
2024-04-11T07:03:42.205Z,39.17
2024-04-11T07:04:41.868Z,40.05
2024-04-11T07:05:41.492Z,43.23
2024-04-11T07:06:41.657Z,42.04
2024-04-11T07:07:41.588Z,50.67
2024-04-11T07:08:41.592Z,50.70
2024-04-11T07:09:41.583Z,56.53
2024-04-11T07:10:41.566Z,57.15
2024-04-11T07:11:41.820Z,62.15
2024-04-11T07:12:41.607Z,62.74
2024-04-11T07:13:41.533Z,61.26
2024-04-11T07:14:41.822Z,60.21
2024-04-11T07:15:41.534Z,58.71
2024-04-11T07:16:41.889Z,62.21
2024-04-11T07:17:41.553Z,57.24
2024-04-11T07:18:41.486Z,57.31
2024-04-11T07:19:41.496Z,59.74
2024-04-11T07:20:41.586Z,58.95
2024-04-11T07:21:41.464Z,63.43
2024-04-11T07:22:41.410Z,60.81
2024-04-11T07:23:41.444Z,60.13
2024-04-11T07:24:41.778Z,60.38
2024-04-11T07:25:41.403Z,60.15
2024-04-11T07:26:41.446Z,54.03
2024-04-11T07:27:41.427Z,50.27
2024-04-11T07:28:41.416Z,50.36
2024-04-11T07:29:41.417Z,56.03
2024-04-11T07:30:41.771Z,53.99
2024-04-11T07:31:41.815Z,51.67
2024-04-11T07:32:41.804Z,51.75
2024-04-11T07:33:41.795Z,52.36
2024-04-11T07:34:41.761Z,52.82
2024-04-11T07:35:41.551Z,57.33
2024-04-11T07:36:42.156Z,59.55
2024-04-11T07:37:41.644Z,60.46
2024-04-11T07:38:41.663Z,56.17
2024-04-11T07:39:41.586Z,50.82
2024-04-11T07:40:41.562Z,51.14
2024-04-11T07:41:41.661Z,50.79
2024-04-11T07:42:41.633Z,51.28
2024-04-11T07:43:41.633Z,51.22
2024-04-11T07:44:41.824Z,54.10
2024-04-11T07:45:41.694Z,50.00
2024-04-11T07:46:47.468Z,51.92
2024-04-11T07:47:50.219Z,52.04
2024-04-11T07:48:41.788Z,52.26
2024-04-11T07:49:42.252Z,53.81
2024-04-11T07:50:41.623Z,55.60
2024-04-11T07:51:41.552Z,55.11
2024-04-11T07:52:41.538Z,54.73
2024-04-11T07:53:41.545Z,53.03
2024-04-11T07:54:47.179Z,51.11
2024-04-11T07:55:41.788Z,51.24
2024-04-11T07:56:41.461Z,49.63
2024-04-11T07:57:41.414Z,45.19
2024-04-11T07:58:41.279Z,39.38
2024-04-11T07:59:42.314Z,30.97
2024-04-11T08:00:41.349Z,39.78
2024-04-11T08:01:41.170Z,51.21
2024-04-11T08:02:41.150Z,50.00
2024-04-11T08:03:41.091Z,52.34
2024-04-11T08:04:41.120Z,52.01
2024-04-11T08:05:41.303Z,55.69
2024-04-11T08:06:41.042Z,58.00
2024-04-11T08:07:40.977Z,56.97
2024-04-11T08:08:40.983Z,59.74
2024-04-11T08:09:41.002Z,60.60
2024-04-11T08:10:41.035Z,56.24
2024-04-11T08:11:41.103Z,53.99
2024-04-11T08:12:40.992Z,50.74
2024-04-11T08:13:43.447Z,50.12
2024-04-11T08:14:41.099Z,50.27
2024-04-11T08:15:40.928Z,39.86
2024-04-11T08:16:40.983Z,18.62
2024-04-11T08:17:40.962Z,5.49
2024-04-11T08:18:40.858Z,0.00
2024-04-11T08:19:47.966Z,13.42
2024-04-11T08:20:40.698Z,0.00
2024-04-11T08:21:40.659Z,0.00
2024-04-11T08:22:40.563Z,0.00
2024-04-11T08:23:40.612Z,0.00
2024-04-11T08:24:40.493Z,0.00
2024-04-11T08:25:40.456Z,0.00
2024-04-11T08:26:40.403Z,0.00
2024-04-11T08:27:40.351Z,0.00
2024-04-11T08:28:40.288Z,8.28
2024-04-11T08:29:40.271Z,13.93
2024-04-11T08:30:40.196Z,24.09
2024-04-11T08:31:40.287Z,31.29
2024-04-11T08:32:40.148Z,41.05
2024-04-11T08:33:40.160Z,46.02
2024-04-11T08:34:40.029Z,50.00
2024-04-11T08:35:40.019Z,50.56
2024-04-11T08:36:39.912Z,50.00
2024-04-11T08:37:39.843Z,49.89
2024-04-11T08:38:39.816Z,49.76
2024-04-11T08:39:39.759Z,49.07
2024-04-11T08:40:39.706Z,48.34
2024-04-11T08:41:39.894Z,50.00
2024-04-11T08:42:39.584Z,50.85
2024-04-11T08:43:42.729Z,50.09
2024-04-11T08:44:39.875Z,50.14
2024-04-11T08:45:39.455Z,50.25
2024-04-11T08:46:39.415Z,51.94
2024-04-11T08:47:39.345Z,56.71
2024-04-11T08:48:39.619Z,59.80
2024-04-11T08:49:39.488Z,64.62
2024-04-11T08:50:39.328Z,67.42
2024-04-11T08:51:41.983Z,74.73
2024-04-11T08:52:38.967Z,74.86
2024-04-11T08:53:51.535Z,76.65
2024-04-11T08:54:39.059Z,75.59
2024-04-11T08:55:38.783Z,80.57
2024-04-11T08:56:38.860Z,92.90
2024-04-11T08:57:38.657Z,114.26
2024-04-11T08:58:38.589Z,142.13
2024-04-11T08:59:38.679Z,148.06
2024-04-11T09:00:38.480Z,152.65
2024-04-11T09:01:38.482Z,163.65
2024-04-11T09:02:38.458Z,165.35
2024-04-11T09:03:38.405Z,158.98
2024-04-11T09:04:38.261Z,158.56
2024-04-11T09:05:38.255Z,162.65
2024-04-11T09:06:38.240Z,167.08
2024-04-11T09:07:39.226Z,174.36
2024-04-11T09:08:38.449Z,184.10
2024-04-11T09:09:37.977Z,190.13
2024-04-11T09:10:37.911Z,197.96
2024-04-11T09:11:38.013Z,200.00
2024-04-11T09:12:37.834Z,197.43
2024-04-11T09:13:37.838Z,195.64
2024-04-11T09:14:37.860Z,199.86
2024-04-11T09:15:37.869Z,191.88
2024-04-11T09:16:37.890Z,190.68
2024-04-11T09:17:37.933Z,188.65
2024-04-11T09:18:37.911Z,180.00
2024-04-11T09:19:37.787Z,178.01
2024-04-11T09:20:37.857Z,176.84
2024-04-11T09:21:38.308Z,171.51
2024-04-11T09:22:37.804Z,167.87
2024-04-11T09:23:37.797Z,167.39
2024-04-11T09:24:37.805Z,170.23
2024-04-11T09:25:37.795Z,175.80
2024-04-11T09:26:37.835Z,177.85
2024-04-11T09:27:37.799Z,180.73
2024-04-11T09:28:37.948Z,173.81
2024-04-11T09:29:37.830Z,170.36
2024-04-11T09:30:37.736Z,167.88
2024-04-11T09:31:38.464Z,160.57
2024-04-11T09:32:37.808Z,162.31
2024-04-11T09:33:37.815Z,153.03
2024-04-11T09:34:39.719Z,154.83
2024-04-11T09:35:37.697Z,155.31
2024-04-11T09:36:37.631Z,158.67
2024-04-11T09:37:37.542Z,162.30
2024-04-11T09:38:37.552Z,167.77
2024-04-11T09:39:37.801Z,174.14
2024-04-11T09:40:37.362Z,166.95
2024-04-11T09:41:38.049Z,161.19
2024-04-11T09:42:37.351Z,157.31
2024-04-11T09:43:37.169Z,151.59
2024-04-11T09:44:37.116Z,153.52
2024-04-11T09:45:37.043Z,161.47
2024-04-11T09:46:37.006Z,161.66
2024-04-11T09:47:37.374Z,160.75
2024-04-11T09:48:37.069Z,157.17
2024-04-11T09:49:36.821Z,156.65
2024-04-11T09:50:36.773Z,167.82
2024-04-11T09:51:36.702Z,171.24
2024-04-11T09:52:36.624Z,177.49
2024-04-11T09:53:36.632Z,180.31
2024-04-11T09:54:36.623Z,175.97
2024-04-11T09:55:36.550Z,166.68
2024-04-11T09:56:36.598Z,156.51
2024-04-11T09:57:36.539Z,142.88
2024-04-11T09:58:36.540Z,138.07
2024-04-11T09:59:36.833Z,138.98
2024-04-11T10:00:36.554Z,137.94
2024-04-11T10:01:36.534Z,126.19
2024-04-11T10:02:36.612Z,119.16
2024-04-11T10:03:36.626Z,118.07
2024-04-11T10:04:36.801Z,125.91
2024-04-11T10:05:36.535Z,132.43
2024-04-11T10:06:36.435Z,142.57
2024-04-11T10:07:36.373Z,147.21
2024-04-11T10:08:36.362Z,151.45
2024-04-11T10:09:36.301Z,152.55
2024-04-11T10:10:36.256Z,149.83
2024-04-11T10:11:36.312Z,148.00
2024-04-11T10:12:36.225Z,142.49
2024-04-11T10:13:36.153Z,138.19
2024-04-11T10:14:36.144Z,140.41
2024-04-11T10:15:36.658Z,134.82
2024-04-11T10:16:36.080Z,130.15
2024-04-11T10:17:36.156Z,130.08
2024-04-11T10:18:36.875Z,133.05
2024-04-11T10:19:36.173Z,136.63
2024-04-11T10:20:36.072Z,135.06
2024-04-11T10:21:41.395Z,133.45
2024-04-11T10:22:35.985Z,133.54
2024-04-11T10:23:35.912Z,134.06
2024-04-11T10:24:36.441Z,135.89
2024-04-11T10:25:35.822Z,142.04
2024-04-11T10:26:35.776Z,147.65
2024-04-11T10:27:36.574Z,146.69
2024-04-11T10:28:35.557Z,138.57
2024-04-11T10:29:35.528Z,136.46
2024-04-11T10:30:35.560Z,130.68
2024-04-11T10:31:35.350Z,132.88
2024-04-11T10:32:35.392Z,133.80
2024-04-11T10:33:35.553Z,138.74
2024-04-11T10:34:35.143Z,138.57
2024-04-11T10:35:35.107Z,145.19
2024-04-11T10:36:35.036Z,147.53
2024-04-11T10:37:35.513Z,152.61
2024-04-11T10:38:35.387Z,148.98
2024-04-11T10:39:34.763Z,150.43
2024-04-11T10:40:34.692Z,144.91
2024-04-11T10:41:34.656Z,150.41
2024-04-11T10:42:34.613Z,145.27
2024-04-11T10:43:34.624Z,148.15
2024-04-11T10:44:34.642Z,163.18
2024-04-11T10:45:34.631Z,166.71
2024-04-11T10:46:34.651Z,172.79
2024-04-11T10:47:34.725Z,169.21
2024-04-11T10:48:34.759Z,159.02
2024-04-11T10:49:34.573Z,165.15
2024-04-11T10:50:34.556Z,162.35
2024-04-11T10:51:34.556Z,163.34
2024-04-11T10:52:34.557Z,160.64
2024-04-11T10:53:34.557Z,158.57
2024-04-11T10:54:34.822Z,166.79
2024-04-11T10:55:34.476Z,178.32
2024-04-11T10:56:34.837Z,183.95
2024-04-11T10:57:34.476Z,186.25
2024-04-11T10:58:34.489Z,191.01
2024-04-11T10:59:34.532Z,197.65
2024-04-11T11:00:34.483Z,198.55
2024-04-11T11:01:35.695Z,193.53
2024-04-11T11:02:34.538Z,188.91
2024-04-11T11:03:34.605Z,186.50
2024-04-11T11:04:34.322Z,186.32
2024-04-11T11:05:34.307Z,178.41
2024-04-11T11:06:34.356Z,173.33
2024-04-11T11:07:34.148Z,172.32
2024-04-11T11:08:34.135Z,175.18
2024-04-11T11:09:34.037Z,172.46
2024-04-11T11:10:33.985Z,177.30
2024-04-11T11:11:34.003Z,187.54
2024-04-11T11:12:33.883Z,194.63
2024-04-11T11:13:33.810Z,187.66
2024-04-11T11:14:34.729Z,178.26
2024-04-11T11:15:33.731Z,169.07
2024-04-11T11:16:33.703Z,169.15
2024-04-11T11:17:33.698Z,164.13
2024-04-11T11:18:33.718Z,170.25
2024-04-11T11:19:33.536Z,180.71
2024-04-11T11:20:33.544Z,187.85
2024-04-11T11:21:33.436Z,178.84
2024-04-11T11:22:33.429Z,170.71
2024-04-11T11:23:33.400Z,167.50
2024-04-11T11:24:33.859Z,168.60
2024-04-11T11:25:33.314Z,167.73
2024-04-11T11:26:33.318Z,176.06
2024-04-11T11:27:33.842Z,177.10
2024-04-11T11:28:33.208Z,167.06
2024-04-11T11:29:33.260Z,160.63
2024-04-11T11:30:33.213Z,153.53
2024-04-11T11:31:33.196Z,147.28
2024-04-11T11:32:33.286Z,145.66
2024-04-11T11:33:33.191Z,148.55
2024-04-11T11:34:33.110Z,144.20
2024-04-11T11:35:33.111Z,139.75
2024-04-11T11:36:33.050Z,140.54
2024-04-11T11:37:33.044Z,142.62
2024-04-11T11:38:33.001Z,134.45
2024-04-11T11:39:33.357Z,132.23
2024-04-11T11:40:32.953Z,132.86
2024-04-11T11:41:32.989Z,132.16
2024-04-11T11:42:32.905Z,124.10
2024-04-11T11:43:32.859Z,123.09
2024-04-11T11:44:32.872Z,123.54
2024-04-11T11:45:32.872Z,131.45
2024-04-11T11:46:32.861Z,136.00
2024-04-11T11:47:33.520Z,130.26
2024-04-11T11:48:33.106Z,136.03
2024-04-11T11:49:32.915Z,137.47
2024-04-11T11:50:33.426Z,137.41
2024-04-11T11:51:32.848Z,142.95
2024-04-11T11:52:32.849Z,140.47
2024-04-11T11:53:33.011Z,144.77
2024-04-11T11:54:32.845Z,146.64
2024-04-11T11:55:33.344Z,143.45
2024-04-11T11:56:32.844Z,137.27
2024-04-11T11:57:32.837Z,137.91
2024-04-11T11:58:32.849Z,135.97
2024-04-11T11:59:32.830Z,130.56
2024-04-11T12:00:32.847Z,123.67
2024-04-11T12:01:32.859Z,120.55
2024-04-11T12:02:32.931Z,117.10
2024-04-11T12:03:35.181Z,109.83
2024-04-11T12:04:32.802Z,104.46
2024-04-11T12:05:32.742Z,110.33
2024-04-11T12:06:32.648Z,112.50
2024-04-11T12:07:32.585Z,119.84
2024-04-11T12:08:32.552Z,126.01
2024-04-11T12:09:32.466Z,130.00
2024-04-11T12:10:32.376Z,119.92
2024-04-11T12:11:32.474Z,119.45
2024-04-11T12:12:35.912Z,124.79
2024-04-11T12:13:32.157Z,124.93
2024-04-11T12:14:32.078Z,125.94
2024-04-11T12:15:32.001Z,129.47
2024-04-11T12:16:32.366Z,135.85
2024-04-11T12:17:31.920Z,143.31
2024-04-11T12:18:31.814Z,141.88
2024-04-11T12:19:31.722Z,142.14
2024-04-11T12:20:31.674Z,149.22
2024-04-11T12:21:31.853Z,148.09
2024-04-11T12:22:31.527Z,149.50
2024-04-11T12:23:31.476Z,153.80
2024-04-11T12:24:31.412Z,143.67
2024-04-11T12:25:31.374Z,132.61
2024-04-11T12:26:31.553Z,131.71
2024-04-11T12:27:31.253Z,127.42
2024-04-11T12:28:31.193Z,126.35
2024-04-11T12:29:31.428Z,121.15
2024-04-11T12:30:31.069Z,116.84
2024-04-11T12:31:31.024Z,106.70
2024-04-11T12:32:30.994Z,101.85
2024-04-11T12:33:30.983Z,109.86
2024-04-11T12:34:30.873Z,111.98
2024-04-11T12:35:30.743Z,128.31
2024-04-11T12:36:30.642Z,136.16
2024-04-11T12:37:30.597Z,129.93
2024-04-11T12:38:30.536Z,130.01
2024-04-11T12:39:30.526Z,133.30
2024-04-11T12:40:30.520Z,138.54
2024-04-11T12:41:30.880Z,133.26
2024-04-11T12:42:30.494Z,137.83
2024-04-11T12:43:30.493Z,126.98